Time;durP1;ratioP1;P1;durP2;ratioP2;P2;SDS_P1;SDS_P2;PMS_P1;PMS_P2;Temp;Humidity;BMP_temperature;BMP_pressure;BME280_temperature;BME280_humidity;BME280_pressure;Samples;Min_cycle;Max_cycle;Signal;HPM_P1;HPM_P2
2023/03/12 07:58:35;;;;;;;;;;;4.80;99.90;;;;;;5559815;24;20607;-89
2023/03/12 08:01:01;;;;;;;;;;;5.00;99.90;;;;;;4724159;30;19922;-88
2023/03/12 08:03:27;;;;;;;;;;;5.00;99.90;;;;;;4766173;30;19924;-90
2023/03/12 08:05:56;;;;;;;;;;;5.00;99.90;;;;;;4743740;30;19982;-87
2023/03/12 08:08:22;;;;;;;;;;;5.10;99.90;;;;;;4755603;30;19950;-88
2023/03/12 08:10:48;;;;;;;;;;;5.20;99.90;;;;;;4753054;30;19965;-87
2023/03/12 08:13:13;;;;;;;;;;;5.30;99.90;;;;;;4753339;30;19914;-88
2023/03/12 08:15:39;;;;;;;;;;;5.40;99.90;;;;;;4735016;30;19914;-88
2023/03/12 08:18:05;;;;;;;;;;;5.50;99.90;;;;;;4729322;30;19915;-87
2023/03/12 08:20:30;;;;;;;;;;;5.60;99.90;;;;;;4719378;30;20381;-94
2023/03/12 08:22:56;;;;;;;;;;;5.60;99.90;;;;;;4719893;30;19921;-89
2023/03/12 08:25:23;;;;;;;;;;;5.70;99.90;;;;;;4719327;30;19919;-88
2023/03/12 08:27:49;;;;;;;;;;;5.80;99.90;;;;;;4723096;30;19960;-87
2023/03/12 08:30:15;;;;;;;;;;;5.90;99.90;;;;;;4735000;30;19972;-87
2023/03/12 08:32:40;;;;;;;;;;;6.00;99.90;;;;;;4720425;30;19984;-87
2023/03/12 08:35:06;;;;;;;;;;;6.00;99.90;;;;;;4737581;30;20278;-88
2023/03/12 08:37:32;;;;;;;;;;;6.00;99.90;;;;;;4719786;30;19914;-86
2023/03/12 08:39:59;;;;;;;;;;;6.20;99.90;;;;;;4713978;30;20004;-85
2023/03/12 08:42:24;;;;;;;;;;;6.20;99.90;;;;;;4720095;30;19914;-88
2023/03/12 08:44:50;;;;;;;;;;;6.30;99.90;;;;;;4719790;30;19921;-86
2023/03/12 08:47:16;;;;;;;;;;;6.30;99.90;;;;;;4725953;30;19921;-93
2023/03/12 08:49:41;;;;;;;;;;;6.40;99.90;;;;;;4720605;30;20382;-88
2023/03/12 08:52:07;;;;;;;;;;;6.50;99.90;;;;;;4724036;30;20330;-89
2023/03/12 08:54:33;;;;;;;;;;;6.50;99.90;;;;;;4725382;30;19914;-88
2023/03/12 08:56:59;;;;;;;;;;;6.60;99.90;;;;;;4725100;30;19910;-88
2023/03/12 08:59:24;;;;;;;;;;;6.60;99.90;;;;;;4721783;30;19922;-88
2023/03/12 09:01:50;;;;;;;;;;;6.70;99.90;;;;;;4720794;30;19914;-87
2023/03/12 09:04:16;;;;;;;;;;;6.80;99.90;;;;;;4716068;30;20048;-89
2023/03/12 09:06:42;;;;;;;;;;;6.90;99.90;;;;;;4722795;30;19919;-93
2023/03/12 09:09:07;;;;;;;;;;;7.00;99.90;;;;;;4715179;30;20448;-89
2023/03/12 09:11:34;;;;;;;;;;;7.00;99.90;;;;;;4718973;30;19948;-89
2023/03/12 09:14:00;;;;;;;;;;;7.00;99.90;;;;;;4729821;30;20002;-90
2023/03/12 09:16:26;;;;;;;;;;;7.10;99.90;;;;;;4718341;30;19919;-91
2023/03/12 09:18:53;;;;;;;;;;;7.20;99.90;;;;;;4730229;30;20077;-89
2023/03/12 09:21:18;;;;;;;;;;;7.20;99.90;;;;;;4719042;30;20285;-89
2023/03/12 09:23:44;;;;;;;;;;;7.20;99.90;;;;;;4688688;30;19919;-87
2023/03/12 09:26:11;;;;;;;;;;;7.30;99.90;;;;;;4713374;30;19914;-87
2023/03/12 09:28:36;;;;;;;;;;;7.40;99.90;;;;;;4707397;30;19965;-87
2023/03/12 09:31:03;;;;;;;;;;;7.50;99.90;;;;;;4728038;30;19958;-90
2023/03/12 09:33:29;;;;;;;;;;;7.60;99.90;;;;;;4716295;30;19970;-89
2023/03/12 09:35:56;;;;;;;;;;;7.70;99.90;;;;;;4715667;30;20341;-90
2023/03/12 09:38:22;;;;;;;;;;;7.90;99.90;;;;;;4710455;30;19914;-91
2023/03/12 09:40:48;;;;;;;;;;;8.00;99.90;;;;;;4711706;30;19910;-90
2023/03/12 09:43:16;;;;;;;;;;;8.10;99.90;;;;;;4704436;30;20278;-90
2023/03/12 09:45:44;;;;;;;;;;;8.20;99.90;;;;;;4718658;30;19920;-87
2023/03/12 09:48:15;;;;;;;;;;;8.40;99.90;;;;;;4719661;30;19981;-87
2023/03/12 09:50:42;;;;;;;;;;;8.50;99.90;;;;;;4706438;30;19914;-87
2023/03/12 09:53:11;;;;;;;;;;;8.40;99.90;;;;;;4711610;30;19919;-91
2023/03/12 09:55:39;;;;;;;;;;;8.50;99.90;;;;;;4720011;30;19914;-89
2023/03/12 09:58:12;;;;;;;;;;;8.70;99.90;;;;;;4736327;30;19922;-86
2023/03/12 10:00:38;;;;;;;;;;;8.80;99.90;;;;;;4746746;30;19918;-92
2023/03/12 10:03:07;;;;;;;;;;;8.90;99.90;;;;;;4713943;30;19977;-86
2023/03/12 10:05:36;;;;;;;;;;;9.00;99.90;;;;;;4705665;30;19915;-89
2023/03/12 10:08:04;;;;;;;;;;;9.10;99.90;;;;;;4721148;30;19917;-89
2023/03/12 10:10:30;;;;;;;;;;;9.20;99.90;;;;;;4735954;30;19921;-90
2023/03/12 10:13:14;;;;;;;;;;;9.30;99.90;;;;;;4738313;30;19938;-88
2023/03/12 10:15:56;;;;;;;;;;;9.20;99.90;;;;;;4704730;30;19937;-88
2023/03/12 10:18:30;;;;;;;;;;;9.40;99.90;;;;;;4706314;30;20001;-88
2023/03/12 10:20:56;;;;;;;;;;;9.40;99.90;;;;;;4720290;30;19954;-89
2023/03/12 10:23:22;;;;;;;;;;;9.30;99.90;;;;;;4704493;30;19973;-90
2023/03/12 10:25:57;;;;;;;;;;;9.40;99.90;;;;;;4718428;30;19919;-88
2023/03/12 10:28:41;;;;;;;;;;;9.50;99.90;;;;;;4705693;30;20782;-88
2023/03/12 10:31:22;;;;;;;;;;;9.50;99.90;;;;;;4729692;30;20016;-88
2023/03/12 10:33:55;;;;;;;;;;;9.60;99.90;;;;;;4718804;30;19914;-87
2023/03/12 10:36:37;;;;;;;;;;;9.60;99.90;;;;;;4717685;30;19997;-87
2023/03/12 10:39:03;;;;;;;;;;;9.70;99.90;;;;;;4705242;30;20370;-89
2023/03/12 10:41:30;;;;;;;;;;;9.80;99.90;;;;;;4710968;30;19910;-88
2023/03/12 10:43:57;;;;;;;;;;;9.90;99.90;;;;;;4709492;30;20010;-86
2023/03/12 10:46:23;;;;;;;;;;;10.20;99.90;;;;;;4703942;30;19958;-88
2023/03/12 10:48:48;;;;;;;;;;;10.10;99.90;;;;;;4719613;30;19958;-86
2023/03/12 10:51:14;;;;;;;;;;;10.10;99.90;;;;;;4730100;30;19962;-87
2023/03/12 10:53:43;;;;;;;;;;;10.20;99.90;;;;;;4735999;30;19956;-84
2023/03/12 10:56:16;;;;;;;;;;;10.30;99.90;;;;;;4710501;30;19916;-86
2023/03/12 10:58:44;;;;;;;;;;;10.30;99.90;;;;;;4737571;30;19924;-91
2023/03/12 11:01:39;;;;;;;;;;;10.40;99.90;;;;;;4729460;30;19961;-93
2023/03/12 11:04:13;;;;;;;;;;;10.50;99.90;;;;;;4692452;30;19914;-94
2023/03/12 11:06:39;;;;;;;;;;;10.60;99.90;;;;;;4708585;30;20005;-93
2023/03/12 11:09:06;;;;;;;;;;;10.70;99.90;;;;;;4720660;30;19954;-94
2023/03/12 11:11:33;;;;;;;;;;;10.80;99.90;;;;;;4722543;30;19922;-90
2023/03/12 11:14:18;;;;;;;;;;;10.90;99.90;;;;;;4708390;30;19953;-93
2023/03/12 11:16:44;;;;;;;;;;;10.90;99.90;;;;;;4719234;30;19953;-94
2023/03/12 11:19:14;;;;;;;;;;;11.20;99.90;;;;;;4719544;30;19930;-93
2023/03/12 11:21:55;;;;;;;;;;;11.30;99.90;;;;;;4726033;30;19915;-90
2023/03/12 11:24:20;;;;;;;;;;;11.50;99.90;;;;;;4729798;30;19922;-93
2023/03/12 11:26:51;;;;;;;;;;;11.40;99.90;;;;;;4737801;30;19910;-93
2023/03/12 11:29:20;;;;;;;;;;;11.30;99.90;;;;;;4720085;30;19925;-90
2023/03/12 11:31:58;;;;;;;;;;;11.40;99.90;;;;;;4735148;30;19926;-90
2023/03/12 11:34:26;;;;;;;;;;;11.50;99.90;;;;;;4735629;30;19964;-92
2023/03/12 11:36:59;;;;;;;;;;;11.60;99.90;;;;;;4720025;30;20003;-93
2023/03/12 11:39:34;;;;;;;;;;;11.70;99.90;;;;;;4715523;30;20457;-90
2023/03/12 11:42:11;;;;;;;;;;;12.00;99.90;;;;;;4714606;30;19964;-92
2023/03/12 11:44:49;;;;;;;;;;;12.20;99.90;;;;;;4718241;30;20013;-92
2023/03/12 11:47:17;;;;;;;;;;;12.30;99.90;;;;;;4720474;30;19915;-92
2023/03/12 11:49:53;;;;;;;;;;;12.50;99.90;;;;;;4719334;30;19917;-92
2023/03/12 11:52:45;;;;;;;;;;;12.80;99.90;;;;;;4719924;30;19927;-93
2023/03/12 11:55:20;;;;;;;;;;;13.00;99.90;;;;;;4709323;30;20005;-90
2023/03/12 11:57:52;;;;;;;;;;;13.20;99.90;;;;;;4721302;30;19933;-89
2023/03/12 12:00:23;;;;;;;;;;;13.00;99.90;;;;;;4721664;30;19919;-93
2023/03/12 12:03:01;;;;;;;;;;;12.70;99.90;;;;;;4720602;30;19914;-92
2023/03/12 12:05:56;;;;;;;;;;;12.50;99.90;;;;;;4714994;30;19914;-90
2023/03/12 12:08:31;;;;;;;;;;;12.50;99.90;;;;;;4688673;30;19922;-89
2023/03/12 12:16:21;;;;;;;26.05;9.60;;;11.70;99.90;;;;;;5031493;27;1328959;-81
2023/03/12 12:19:05;;;;;;;16.33;5.32;;;11.40;99.90;;;;;;5055549;28;20311;-80
2023/03/12 12:21:59;;;;;;;15.90;6.93;;;11.80;99.90;;;;;;5026420;28;20107;-82
2023/03/12 12:24:54;;;;;;;16.20;6.88;;;12.20;99.90;;;;;;5036288;28;20044;-80
2023/03/12 12:27:31;;;;;;;19.67;8.77;;;12.60;99.90;;;;;;5044812;28;20052;-82
2023/03/12 12:30:18;;;;;;;25.40;7.90;;;12.80;99.90;;;;;;5026513;28;20436;-81
2023/03/12 12:32:53;;;;;;;11.43;5.50;;;12.90;99.90;;;;;;5028282;28;20040;-81
2023/03/12 12:35:34;;;;;;;21.70;6.93;;;12.90;99.90;;;;;;5029354;28;20025;-82
2023/03/12 12:38:11;;;;;;;18.38;6.25;;;12.80;99.90;;;;;;5028423;28;20025;-80
2023/03/12 12:40:46;;;;;;;22.73;6.53;;;12.80;99.90;;;;;;5042231;28;20091;-81
2023/03/12 12:43:31;;;;;;;18.60;5.65;;;12.80;99.90;;;;;;5021876;28;20104;-80
2023/03/12 12:46:12;;;;;;;23.58;7.13;;;13.10;99.90;;;;;;5024633;28;20380;-81
2023/03/12 12:48:47;;;;;;;14.57;8.13;;;13.20;99.90;;;;;;5034789;28;20468;-84
2023/03/12 12:51:15;;;;;;;14.88;4.78;;;13.20;99.90;;;;;;5025096;28;20034;-85
2023/03/12 12:53:56;;;;;;;16.95;5.80;;;13.30;99.90;;;;;;5041242;28;20061;-82
2023/03/12 12:56:53;;;;;;;10.75;5.35;;;13.20;99.90;;;;;;5045398;28;20372;-81
2023/03/12 12:59:26;;;;;;;13.63;4.85;;;13.50;99.90;;;;;;5015150;28;20101;-81
2023/03/12 13:01:53;;;;;;;22.42;7.45;;;13.50;99.90;;;;;;5044027;28;20033;-80
2023/03/12 13:04:36;;;;;;;20.50;5.05;;;13.50;99.90;;;;;;5030640;28;20026;-80
2023/03/12 13:07:11;;;;;;;14.13;5.78;;;13.50;99.90;;;;;;5046818;28;20536;-81
2023/03/12 13:09:42;;;;;;;17.42;6.78;;;13.20;99.90;;;;;;5036273;28;20029;-80
2023/03/12 13:12:48;;;;;;;15.32;5.10;;;12.90;99.90;;;;;;5037182;28;20041;-81
2023/03/12 13:15:30;;;;;;;19.20;5.95;;;12.90;99.90;;;;;;5009947;28;20576;-81
2023/03/12 13:17:55;;;;;;;21.40;5.82;;;13.10;99.90;;;;;;5007800;28;20042;-82
2023/03/12 13:20:29;;;;;;;13.43;5.63;;;13.30;99.90;;;;;;5005114;28;20030;-80
2023/03/12 13:23:13;;;;;;;19.80;9.02;;;13.30;99.90;;;;;;5003278;28;20085;-81
2023/03/12 13:25:57;;;;;;;36.10;7.88;;;13.30;99.90;;;;;;4994859;28;20065;-80
2023/03/12 13:28:36;;;;;;;11.65;7.20;;;13.40;99.90;;;;;;4994018;28;20035;-80
2023/03/12 13:31:27;;;;;;;20.88;7.80;;;13.30;99.90;;;;;;4977769;28;20057;-79
2023/03/12 13:34:11;;;;;;;22.55;8.50;;;13.20;99.90;;;;;;4989576;28;20510;-79
2023/03/12 13:36:37;;;;;;;12.27;4.82;;;13.20;99.90;;;;;;5010032;28;20504;-79
2023/03/12 13:39:06;;;;;;;17.00;7.10;;;13.00;99.90;;;;;;4981042;28;20030;-80
2023/03/12 13:41:38;;;;;;;20.15;5.70;;;12.80;99.90;;;;;;4996942;28;20116;-81
2023/03/12 13:44:25;;;;;;;30.48;6.93;;;12.70;99.90;;;;;;5012723;28;20069;-81
2023/03/12 13:47:09;;;;;;;16.73;6.97;;;12.60;99.90;;;;;;5004966;28;20026;-80
2023/03/12 13:49:42;;;;;;;26.95;7.43;;;12.50;99.90;;;;;;5012545;28;20041;-80
2023/03/12 13:52:17;;;;;;;17.38;8.25;;;12.40;99.90;;;;;;4995867;28;20096;-80
2023/03/12 13:54:48;;;;;;;14.63;6.05;;;12.30;99.90;;;;;;4996339;28;20037;-80
2023/03/12 13:57:45;;;;;;;20.70;6.38;;;12.30;99.90;;;;;;4996546;28;20033;-79
2023/03/12 14:00:19;;;;;;;12.38;6.30;;;12.30;99.90;;;;;;4997917;28;20034;-80
2023/03/12 14:03:05;;;;;;;9.55;6.00;;;12.30;99.90;;;;;;4999203;28;20065;-80
2023/03/12 14:05:43;;;;;;;11.90;4.70;;;12.30;99.90;;;;;;5012682;28;20030;-81
2023/03/12 14:08:36;;;;;;;27.02;7.28;;;12.20;99.90;;;;;;4997421;28;20053;-80
2023/03/12 14:11:17;;;;;;;22.75;8.88;;;12.30;99.90;;;;;;4994602;28;20034;-78
2023/03/12 14:14:02;;;;;;;36.60;15.82;;;12.20;99.90;;;;;;5012177;28;20510;-81
2023/03/12 14:16:35;;;;;;;28.48;10.27;;;12.40;99.90;;;;;;5004616;28;20053;-79
2023/03/12 14:19:03;;;;;;;15.05;8.13;;;12.40;99.90;;;;;;4992032;28;20030;-81
2023/03/12 14:21:34;;;;;;;17.77;6.90;;;12.40;99.90;;;;;;4992776;28;20380;-80
2023/03/12 14:24:01;;;;;;;27.75;8.88;;;12.50;99.90;;;;;;4992187;28;20107;-79
2023/03/12 14:26:31;;;;;;;24.77;7.25;;;12.40;99.90;;;;;;4976426;28;20037;-80
2023/03/12 14:28:59;;;;;;;;;;;12.50;99.90;;;;;;4975375;28;20023;-80
2023/03/12 14:31:27;;;;;;;13.82;7.82;;;12.70;99.90;;;;;;4992534;28;20391;-80
2023/03/12 14:34:15;;;;;;;25.38;10.27;;;12.70;99.90;;;;;;5005756;28;20028;-79
2023/03/12 14:36:48;;;;;;;15.93;8.05;;;12.70;99.90;;;;;;4995654;28;20026;-79
2023/03/12 14:39:28;;;;;;;11.63;4.75;;;12.70;99.90;;;;;;5004713;28;20033;-80
2023/03/12 14:42:04;;;;;;;17.20;8.95;;;12.60;99.90;;;;;;5000699;28;20527;-80
2023/03/12 14:44:32;;;;;;;25.13;8.65;;;12.60;99.90;;;;;;4995155;28;20049;-80
2023/03/12 14:47:10;;;;;;;15.55;5.55;;;12.60;99.90;;;;;;4995129;28;20026;-81
2023/03/12 14:49:41;;;;;;;13.35;6.05;;;12.70;99.90;;;;;;4995117;28;20038;-78
2023/03/12 14:52:21;;;;;;;24.27;6.65;;;12.60;99.90;;;;;;5001373;28;20092;-81
2023/03/12 14:54:58;;;;;;;21.00;8.48;;;12.20;99.90;;;;;;4991106;28;20035;-81
2023/03/12 14:57:24;;;;;;;19.67;8.45;;;12.50;99.90;;;;;;4992930;28;20038;-81
2023/03/12 14:59:59;;;;;;;22.83;7.35;;;12.50;99.90;;;;;;4999794;28;20619;-81
2023/03/12 15:02:27;;;;;;;13.52;5.88;;;12.30;99.90;;;;;;5011842;28;20034;-81
2023/03/12 15:04:58;;;;;;;15.25;5.57;;;11.90;99.90;;;;;;5010088;28;20054;-79
2023/03/12 15:07:31;;;;;;;18.92;7.50;;;12.20;99.90;;;;;;4994924;28;20022;-80
2023/03/12 15:09:57;;;;;;;16.60;5.80;;;12.20;99.90;;;;;;5003262;28;20121;-80
2023/03/12 15:12:25;;;;;;;19.95;5.43;;;12.10;99.90;;;;;;5002707;28;20492;-80
2023/03/12 15:14:56;;;;;;;9.48;5.55;;;12.20;99.90;;;;;;5011615;28;20114;-80
2023/03/12 15:17:25;;;;;;;16.58;4.65;;;12.30;99.90;;;;;;5012810;28;20060;-80
2023/03/12 15:19:53;;;;;;;14.88;5.40;;;12.20;99.90;;;;;;4997412;28;20103;-82
2023/03/12 15:22:23;;;;;;;7.72;4.35;;;12.60;99.90;;;;;;4991446;28;20122;-81
2023/03/12 15:24:49;;;;;;;;;;;12.20;99.90;;;;;;4991419;28;20029;-81
2023/03/12 15:27:27;;;;;;;16.73;5.60;;;12.30;99.90;;;;;;4989390;28;19913;-81
2023/03/12 15:29:53;;;;;;;20.40;7.05;;;12.40;99.90;;;;;;4992311;28;20494;-80
2023/03/12 15:32:23;;;;;;;16.70;6.78;;;12.40;99.90;;;;;;5009666;28;20408;-82
2023/03/12 15:34:51;;;;;;;23.20;6.10;;;12.30;99.90;;;;;;5010836;28;20029;-83
2023/03/12 15:37:48;;;;;;;25.80;5.80;;;12.40;99.90;;;;;;4994671;28;20025;-81
2023/03/12 15:40:19;;;;;;;18.83;6.90;;;12.30;99.90;;;;;;5004226;28;20380;-81
2023/03/12 15:42:46;;;;;;;16.88;6.18;;;12.20;99.90;;;;;;5000330;28;20022;-82
2023/03/12 15:45:19;;;;;;;14.13;4.93;;;12.10;99.90;;;;;;4991215;28;20068;-81
2023/03/12 15:47:45;;;;;;;18.58;6.15;;;12.10;99.90;;;;;;5009636;28;20508;-84
2023/03/12 15:50:22;;;;;;;18.27;5.55;;;12.10;99.90;;;;;;5002134;28;20367;-84
2023/03/12 15:53:11;;;;;;;17.55;8.48;;;12.00;99.90;;;;;;5007780;28;20125;-84
2023/03/12 15:55:37;;;;;;;11.30;5.45;;;12.10;99.90;;;;;;4989101;28;20082;-84
2023/03/12 15:58:27;;;;;;;13.93;4.40;;;12.00;99.90;;;;;;5004038;28;20060;-83
2023/03/12 16:00:53;;;;;;;19.30;6.68;;;11.90;99.90;;;;;;5005615;28;20026;-83
2023/03/12 16:03:21;;;;;;;13.50;5.28;;;11.90;99.90;;;;;;4987761;28;20042;-83
2023/03/12 16:05:49;;;;;;;15.02;7.22;;;11.90;99.90;;;;;;5003836;28;20037;-83
2023/03/12 16:08:24;;;;;;;14.43;4.80;;;11.80;99.90;;;;;;4986263;28;20033;-82
2023/03/12 16:10:50;;;;;;;13.00;5.15;;;11.80;99.90;;;;;;5003165;28;20073;-84
2023/03/12 16:13:20;;;;;;;23.92;6.55;;;11.90;99.90;;;;;;5005595;28;20052;-81
2023/03/12 16:15:47;;;;;;;17.43;7.07;;;11.90;99.90;;;;;;4986144;28;20465;-81
2023/03/12 16:18:15;;;;;;;11.05;5.55;;;11.80;99.90;;;;;;4975148;28;20034;-82
2023/03/12 16:20:42;;;;;;;21.08;7.25;;;11.80;99.90;;;;;;4991100;28;20026;-81
2023/03/12 16:23:08;;;;;;;22.08;6.95;;;11.80;99.90;;;;;;5002505;28;20393;-82
2023/03/12 16:25:34;;;;;;;18.33;5.85;;;11.80;99.90;;;;;;5008595;28;20084;-83
2023/03/12 16:28:04;;;;;;;8.55;4.70;;;11.70;99.90;;;;;;5002652;28;20050;-80
2023/03/12 16:30:31;;;;;;;;;;;11.70;99.90;;;;;;4990395;28;20230;-80
2023/03/12 16:32:58;;;;;;;12.48;4.90;;;11.60;99.90;;;;;;4983541;28;20375;-82
2023/03/12 16:35:26;;;;;;;24.13;4.13;;;11.60;99.90;;;;;;5010975;28;20384;-81
2023/03/12 16:37:53;;;;;;;15.63;6.10;;;11.60;99.90;;;;;;4964864;28;20030;-86
2023/03/12 16:40:20;;;;;;;22.60;8.07;;;11.60;99.90;;;;;;5010726;28;20034;-83
2023/03/12 16:42:49;;;;;;;16.13;4.32;;;11.60;99.90;;;;;;4991447;28;20045;-83
2023/03/12 16:45:17;;;;;;;14.25;4.70;;;11.50;99.90;;;;;;4991333;28;20496;-85
2023/03/12 16:47:44;;;;;;;14.05;5.50;;;11.40;99.90;;;;;;5007518;28;20036;-83
2023/03/12 16:50:14;;;;;;;11.43;5.88;;;11.50;99.90;;;;;;4986595;28;20129;-84
2023/03/12 16:52:41;;;;;;;16.02;5.18;;;11.50;99.90;;;;;;5007311;28;20030;-83
2023/03/12 16:55:07;;;;;;;22.00;6.60;;;11.50;99.90;;;;;;4992153;28;20026;-85
2023/03/12 16:57:37;;;;;;;9.23;4.80;;;11.50;99.90;;;;;;4992596;28;20030;-84
2023/03/12 17:00:07;;;;;;;22.08;6.45;;;11.40;99.90;;;;;;5006804;28;20046;-84
2023/03/12 17:02:34;;;;;;;25.92;7.72;;;11.40;99.90;;;;;;4991974;28;20043;-85
2023/03/12 17:05:03;;;;;;;16.52;7.85;;;11.40;99.90;;;;;;4979995;28;20022;-84
2023/03/12 17:07:29;;;;;;;26.87;6.50;;;11.30;99.90;;;;;;4977038;28;20049;-83
2023/03/12 17:09:55;;;;;;;14.68;5.75;;;11.30;99.90;;;;;;5005261;28;20033;-85
2023/03/12 17:12:29;;;;;;;24.52;6.03;;;11.40;99.90;;;;;;4996240;28;20396;-85
2023/03/12 17:14:55;;;;;;;28.80;7.82;;;11.30;99.90;;;;;;5011958;28;20046;-84
2023/03/12 17:17:24;;;;;;;19.45;7.40;;;11.20;99.90;;;;;;5011983;28;20033;-83
2023/03/12 17:19:51;;;;;;;28.92;11.38;;;11.30;99.90;;;;;;5010266;28;20076;-83
2023/03/12 17:22:20;;;;;;;26.80;11.52;;;11.10;99.90;;;;;;4995978;28;20092;-84
2023/03/12 17:24:46;;;;;;;14.45;7.00;;;11.20;99.90;;;;;;4991387;28;20030;-87
2023/03/12 17:27:14;;;;;;;22.75;7.63;;;11.10;99.90;;;;;;5007488;28;20030;-84
2023/03/12 17:29:40;;;;;;;9.65;5.40;;;11.10;99.90;;;;;;5002680;28;20121;-83
2023/03/12 17:32:06;;;;;;;19.48;7.07;;;11.10;99.90;;;;;;4977804;28;20125;-83
2023/03/12 17:34:32;;;;;;;13.73;5.47;;;11.10;99.90;;;;;;4993496;28;20478;-85
2023/03/12 17:36:58;;;;;;;26.58;8.45;;;11.10;99.90;;;;;;4988123;28;20093;-83
2023/03/12 17:39:25;;;;;;;25.70;9.65;;;11.00;99.90;;;;;;4979231;28;20030;-83
2023/03/12 17:41:50;;;;;;;19.05;6.65;;;11.00;99.90;;;;;;4994852;28;20026;-82
2023/03/12 17:44:16;;;;;;;14.10;6.85;;;11.10;99.90;;;;;;5013881;28;20042;-82
2023/03/12 17:46:42;;;;;;;16.40;7.25;;;11.10;99.90;;;;;;4999325;28;20022;-83
2023/03/12 17:49:08;;;;;;;18.65;4.65;;;11.00;99.90;;;;;;5008448;28;20377;-83
2023/03/12 17:51:34;;;;;;;16.45;5.60;;;11.00;99.90;;;;;;4993133;28;20121;-82
2023/03/12 17:54:00;;;;;;;27.05;8.98;;;11.00;99.90;;;;;;4998330;28;20120;-84
2023/03/12 17:56:27;;;;;;;8.57;5.75;;;11.10;99.90;;;;;;4976451;28;20130;-84
2023/03/12 17:58:53;;;;;;;16.27;6.00;;;11.00;99.90;;;;;;4989495;28;20108;-83
2023/03/12 18:01:19;;;;;;;14.55;7.55;;;11.00;99.90;;;;;;5004999;28;20132;-84
2023/03/12 18:03:45;;;;;;;12.07;7.65;;;11.00;99.90;;;;;;5011933;28;20079;-85
2023/03/12 18:06:11;;;;;;;25.27;10.60;;;11.00;99.90;;;;;;5009097;28;20038;-84
2023/03/12 18:08:37;;;;;;;13.20;6.90;;;10.90;99.90;;;;;;5011767;28;20365;-84
2023/03/12 18:11:03;;;;;;;8.30;7.40;;;10.90;99.90;;;;;;4992532;28;20153;-85
2023/03/12 18:13:29;;;;;;;12.02;5.40;;;10.90;99.90;;;;;;4979191;28;20044;-84
2023/03/12 18:15:57;;;;;;;21.15;8.38;;;10.90;99.90;;;;;;4995403;28;20041;-84
2023/03/12 18:18:24;;;;;;;14.40;5.80;;;10.90;99.90;;;;;;5012615;28;20044;-85
2023/03/12 18:20:51;;;;;;;16.60;7.50;;;10.80;99.90;;;;;;5003347;28;20030;-86
2023/03/12 18:23:17;;;;;;;23.88;6.57;;;10.80;99.90;;;;;;4992439;28;20030;-86
2023/03/12 18:25:44;;;;;;;15.15;6.60;;;10.80;99.90;;;;;;4991309;28;20026;-87
2023/03/12 18:28:11;;;;;;;22.38;9.10;;;10.80;99.90;;;;;;5012957;28;20033;-87
2023/03/12 18:30:36;;;;;;;11.80;7.38;;;10.80;99.90;;;;;;4989529;28;20491;-87
2023/03/12 18:33:02;;;;;;;15.70;10.60;;;10.80;99.90;;;;;;5011902;28;20042;-85
2023/03/12 18:35:29;;;;;;;17.42;8.15;;;10.80;99.90;;;;;;5007741;28;20763;-84
2023/03/12 18:37:58;;;;;;;14.70;7.65;;;10.80;99.90;;;;;;5006134;28;20120;-86
2023/03/12 18:40:26;;;;;;;14.50;5.75;;;10.80;99.90;;;;;;4991019;28;20392;-86
2023/03/12 18:42:55;;;;;;;14.50;6.18;;;10.70;99.90;;;;;;5010320;28;20036;-86
2023/03/12 18:45:21;;;;;;;17.75;6.80;;;10.80;99.90;;;;;;4992984;28;20022;-85
2023/03/12 18:47:49;;;;;;;26.05;11.60;;;10.80;99.90;;;;;;4993367;28;20041;-85
2023/03/12 18:50:15;;;;;;;24.67;9.43;;;10.70;99.90;;;;;;4985160;28;20093;-86
2023/03/12 18:52:41;;;;;;;42.75;10.65;;;10.70;99.90;;;;;;4991515;28;20069;-89
2023/03/12 18:55:13;;;;;;;20.70;9.63;;;10.60;99.90;;;;;;5007877;28;20084;-87
2023/03/12 18:57:41;;;;;;;26.80;7.07;;;10.60;99.90;;;;;;5010466;28;20037;-88
2023/03/12 19:00:16;;;;;;;14.70;6.53;;;10.60;99.90;;;;;;4992211;28;20064;-87
2023/03/12 19:02:43;;;;;;;10.20;5.25;;;10.50;99.90;;;;;;5011329;28;20030;-87
2023/03/12 19:05:11;;;;;;;15.48;6.60;;;10.60;99.90;;;;;;4993258;28;20033;-88
2023/03/12 19:07:38;;;;;;;13.88;5.85;;;10.60;99.90;;;;;;4994403;28;20076;-86
2023/03/12 19:10:06;;;;;;;15.73;7.95;;;10.70;99.90;;;;;;4992509;28;20781;-87
2023/03/12 19:12:32;;;;;;;14.43;4.68;;;10.60;99.90;;;;;;4994131;28;20420;-87
2023/03/12 19:14:58;;;;;;;23.35;7.53;;;10.50;99.90;;;;;;5010126;28;20191;-85
2023/03/12 19:17:24;;;;;;;29.70;15.35;;;10.40;99.90;;;;;;4982584;28;20058;-88
2023/03/12 19:19:51;;;;;;;40.35;19.15;;;10.40;99.90;;;;;;5009507;28;20029;-87
2023/03/12 19:22:16;;;;;;;35.33;22.80;;;10.30;99.90;;;;;;5002926;28;20393;-87
2023/03/12 19:24:42;;;;;;;45.75;20.90;;;10.20;99.90;;;;;;4994535;28;20022;-87
2023/03/12 19:27:09;;;;;;;17.02;11.00;;;10.20;99.90;;;;;;5000239;28;20534;-87
2023/03/12 19:29:35;;;;;;;27.50;16.25;;;10.10;99.90;;;;;;4992573;28;20018;-86
2023/03/12 19:32:01;;;;;;;17.23;9.05;;;10.10;99.90;;;;;;5007810;28;20477;-87
2023/03/12 19:34:27;;;;;;;37.00;19.30;;;10.10;99.90;;;;;;4993967;28;20033;-87
2023/03/12 19:36:53;;;;;;;15.50;6.28;;;10.10;99.90;;;;;;4994448;28;20029;-87
2023/03/12 19:39:19;;;;;;;30.42;8.73;;;10.10;99.90;;;;;;5005264;28;20117;-86
2023/03/12 19:41:44;;;;;;;39.50;14.25;;;10.10;99.90;;;;;;4974701;28;20034;-84
2023/03/12 19:44:10;;;;;;;44.17;18.15;;;10.10;99.90;;;;;;4981792;28;20461;-83
2023/03/12 19:46:36;;;;;;;18.92;7.75;;;10.10;99.90;;;;;;5009606;28;20033;-83
2023/03/12 19:49:02;;;;;;;21.08;13.23;;;9.60;99.90;;;;;;4989769;28;20131;-83
2023/03/12 19:51:28;;;;;;;12.55;7.65;;;10.00;99.90;;;;;;4982780;28;20038;-83
2023/03/12 19:53:54;;;;;;;24.25;10.65;;;10.00;99.90;;;;;;4994405;28;20034;-83
2023/03/12 19:56:21;;;;;;;21.85;9.02;;;10.00;99.90;;;;;;4994258;28;20041;-82
2023/03/12 19:58:47;;;;;;;19.52;10.40;;;10.10;99.90;;;;;;4991200;28;20164;-83
2023/03/12 20:01:13;;;;;;;34.58;20.27;;;10.10;99.90;;;;;;5011913;28;20028;-84
2023/03/12 20:03:41;;;;;;;15.50;10.45;;;10.20;99.90;;;;;;4994004;28;20042;-83
2023/03/12 20:06:10;;;;;;;19.50;8.90;;;10.20;99.90;;;;;;4978681;28;20051;-84
2023/03/12 20:08:36;;;;;;;44.25;33.45;;;10.20;99.90;;;;;;5010292;28;20037;-84
2023/03/12 20:11:08;;;;;;;16.55;11.35;;;10.20;99.90;;;;;;4991936;28;20030;-84
2023/03/12 20:13:36;;;;;;;20.60;8.93;;;10.10;99.90;;;;;;5009691;28;20038;-84
2023/03/12 20:16:03;;;;;;;26.10;12.30;;;10.10;99.90;;;;;;4994019;28;20033;-85
2023/03/12 20:18:29;;;;;;;15.27;8.98;;;10.00;99.90;;;;;;4992918;28;20037;-85
2023/03/12 20:20:56;;;;;;;24.35;12.02;;;10.00;99.90;;;;;;4978234;28;20042;-85
2023/03/12 20:23:22;;;;;;;34.78;15.27;;;9.90;99.90;;;;;;4986782;28;20022;-85
2023/03/12 20:25:49;;;;;;;8.80;6.20;;;10.00;99.90;;;;;;4974284;28;20772;-84
2023/03/12 20:28:16;;;;;;;24.15;11.63;;;10.00;99.90;;;;;;4974317;28;20473;-84
2023/03/12 20:30:42;;;;;;;17.38;10.10;;;10.00;99.90;;;;;;4989737;28;20022;-85
2023/03/12 20:33:08;;;;;;;35.22;14.68;;;9.90;99.90;;;;;;4994586;28;20452;-84
2023/03/12 20:35:34;;;;;;;18.33;7.53;;;10.00;99.90;;;;;;4996155;28;20034;-85
2023/03/12 20:38:00;;;;;;;34.25;18.63;;;10.00;99.90;;;;;;4981532;28;20121;-84
2023/03/12 20:40:27;;;;;;;19.27;10.00;;;10.00;99.90;;;;;;5012572;28;20121;-85
2023/03/12 20:42:52;;;;;;;20.48;10.10;;;9.90;99.90;;;;;;5014052;28;20030;-85
2023/03/12 20:45:18;;;;;;;17.10;9.10;;;9.80;99.90;;;;;;5014078;28;20042;-84
2023/03/12 20:47:44;;;;;;;28.55;10.35;;;9.80;99.90;;;;;;4997539;28;20141;-85
2023/03/12 20:50:10;;;;;;;36.40;8.85;;;9.80;99.90;;;;;;5007500;28;20080;-85
2023/03/12 20:52:36;;;;;;;18.00;6.72;;;9.90;99.90;;;;;;4978233;28;20477;-85
2023/03/12 20:55:02;;;;;;;18.38;7.60;;;9.90;99.90;;;;;;4994780;28;20128;-85
2023/03/12 20:57:28;;;;;;;23.67;8.48;;;10.00;99.90;;;;;;4995455;28;20405;-84
2023/03/12 20:59:54;;;;;;;14.77;9.40;;;10.00;99.90;;;;;;5021274;28;20030;-84
2023/03/12 21:02:20;;;;;;;29.45;13.57;;;10.10;99.90;;;;;;5014128;28;20499;-85
2023/03/12 21:04:48;;;;;;;17.88;9.57;;;10.00;99.90;;;;;;4981864;28;20037;-83
2023/03/12 21:07:14;;;;;;;18.70;7.57;;;10.10;99.90;;;;;;5015022;28;20357;-84
2023/03/12 21:09:40;;;;;;;22.35;11.77;;;10.00;99.90;;;;;;4996918;28;20026;-84
2023/03/12 21:12:05;;;;;;;37.65;19.70;;;10.00;99.90;;;;;;4997648;28;20141;-84
2023/03/12 21:14:31;;;;;;;29.85;14.32;;;10.00;99.90;;;;;;4996201;28;20018;-85
2023/03/12 21:16:57;;;;;;;21.17;8.48;;;10.00;99.90;;;;;;4996467;28;20033;-85
2023/03/12 21:19:24;;;;;;;31.40;13.23;;;10.10;99.90;;;;;;4992146;28;20030;-84
2023/03/12 21:21:50;;;;;;;24.60;6.40;;;10.00;99.90;;;;;;4993589;28;20026;-85
2023/03/12 21:24:16;;;;;;;18.33;6.85;;;10.10;99.90;;;;;;4979752;28;20026;-85
2023/03/12 21:26:42;;;;;;;11.68;7.20;;;10.10;99.90;;;;;;4996444;28;20128;-84